sensor_id;sensor_type;location;lat;lon;timestamp;temperature;humidity
11089;DHT22;5598;48.648;8.908;2024-03-23T00:52:45;10.00;93.80
11089;DHT22;5598;48.648;8.908;2024-03-23T00:55:12;10.00;94.00
11089;DHT22;5598;48.648;8.908;2024-03-23T00:57:38;10.00;94.00
11089;DHT22;5598;48.648;8.908;2024-03-23T01:00:06;10.00;94.20
11089;DHT22;5598;48.648;8.908;2024-03-23T01:02:32;10.00;94.20
11089;DHT22;5598;48.648;8.908;2024-03-23T01:04:58;9.90;94.90
11089;DHT22;5598;48.648;8.908;2024-03-23T01:07:24;9.90;94.90
11089;DHT22;5598;48.648;8.908;2024-03-23T01:09:52;9.90;94.90
11089;DHT22;5598;48.648;8.908;2024-03-23T01:12:18;9.80;95.00
11089;DHT22;5598;48.648;8.908;2024-03-23T01:14:45;9.80;95.50
11089;DHT22;5598;48.648;8.908;2024-03-23T01:17:11;9.80;95.80
11089;DHT22;5598;48.648;8.908;2024-03-23T01:19:38;9.80;95.70
11089;DHT22;5598;48.648;8.908;2024-03-23T01:22:05;9.80;95.60
11089;DHT22;5598;48.648;8.908;2024-03-23T01:24:31;9.80;95.50
11089;DHT22;5598;48.648;8.908;2024-03-23T01:26:58;9.80;95.40
11089;DHT22;5598;48.648;8.908;2024-03-23T01:29:25;9.90;95.40
11089;DHT22;5598;48.648;8.908;2024-03-23T01:31:51;9.90;95.40
11089;DHT22;5598;48.648;8.908;2024-03-23T01:34:18;9.90;95.30
11089;DHT22;5598;48.648;8.908;2024-03-23T01:36:45;10.00;95.10
11089;DHT22;5598;48.648;8.908;2024-03-23T01:39:12;10.00;95.00
11089;DHT22;5598;48.648;8.908;2024-03-23T01:41:37;10.00;95.10
11089;DHT22;5598;48.648;8.908;2024-03-23T01:44:09;10.10;94.70
11089;DHT22;5598;48.648;8.908;2024-03-23T01:46:36;10.10;94.90
11089;DHT22;5598;48.648;8.908;2024-03-23T01:49:04;10.10;94.70
11089;DHT22;5598;48.648;8.908;2024-03-23T01:51:30;10.20;94.60
11089;DHT22;5598;48.648;8.908;2024-03-23T01:53:59;10.20;94.60
11089;DHT22;5598;48.648;8.908;2024-03-23T01:56:26;10.20;94.50
11089;DHT22;5598;48.648;8.908;2024-03-23T01:58:53;10.20;94.80
11089;DHT22;5598;48.648;8.908;2024-03-23T02:01:20;10.20;94.80
11089;DHT22;5598;48.648;8.908;2024-03-23T02:03:47;10.10;94.90
11089;DHT22;5598;48.648;8.908;2024-03-23T02:06:13;10.10;94.80
11089;DHT22;5598;48.648;8.908;2024-03-23T02:08:40;10.10;94.80
11089;DHT22;5598;48.648;8.908;2024-03-23T02:11:06;10.10;94.90
11089;DHT22;5598;48.648;8.908;2024-03-23T02:13:33;10.10;95.00
11089;DHT22;5598;48.648;8.908;2024-03-23T02:15:59;10.10;95.10
11089;DHT22;5598;48.648;8.908;2024-03-23T02:18:27;10.10;95.20
11089;DHT22;5598;48.648;8.908;2024-03-23T02:20:52;10.00;95.30
11089;DHT22;5598;48.648;8.908;2024-03-23T02:23:21;10.00;95.40
11089;DHT22;5598;48.648;8.908;2024-03-23T02:25:46;10.00;95.40
11089;DHT22;5598;48.648;8.908;2024-03-23T02:28:13;10.00;95.50
11089;DHT22;5598;48.648;8.908;2024-03-23T02:30:39;10.00;95.50
11089;DHT22;5598;48.648;8.908;2024-03-23T02:33:06;10.00;95.60
11089;DHT22;5598;48.648;8.908;2024-03-23T02:35:32;9.90;96.10
11089;DHT22;5598;48.648;8.908;2024-03-23T02:37:59;9.90;96.20
11089;DHT22;5598;48.648;8.908;2024-03-23T02:40:27;9.80;96.40
11089;DHT22;5598;48.648;8.908;2024-03-23T02:42:54;9.80;96.50
11089;DHT22;5598;48.648;8.908;2024-03-23T02:45:20;9.70;96.60
11089;DHT22;5598;48.648;8.908;2024-03-23T02:47:47;9.70;96.70
11089;DHT22;5598;48.648;8.908;2024-03-23T02:50:17;9.70;96.80
11089;DHT22;5598;48.648;8.908;2024-03-23T02:52:44;9.60;96.90
11089;DHT22;5598;48.648;8.908;2024-03-23T02:55:10;9.60;96.80
11089;DHT22;5598;48.648;8.908;2024-03-23T02:57:38;9.60;97.00
11089;DHT22;5598;48.648;8.908;2024-03-23T03:00:05;9.50;97.00
11089;DHT22;5598;48.648;8.908;2024-03-23T03:02:33;9.50;97.30
11089;DHT22;5598;48.648;8.908;2024-03-23T03:04:58;9.40;97.40
11089;DHT22;5598;48.648;8.908;2024-03-23T03:07:25;9.40;97.60
11089;DHT22;5598;48.648;8.908;2024-03-23T03:09:51;9.40;97.90
11089;DHT22;5598;48.648;8.908;2024-03-23T03:12:18;9.30;98.00
11089;DHT22;5598;48.648;8.908;2024-03-23T03:14:45;9.40;98.30
11089;DHT22;5598;48.648;8.908;2024-03-23T03:17:12;9.40;98.50
11089;DHT22;5598;48.648;8.908;2024-03-23T03:19:38;9.40;98.50
11089;DHT22;5598;48.648;8.908;2024-03-23T03:22:05;9.30;98.60
11089;DHT22;5598;48.648;8.908;2024-03-23T03:24:31;9.30;98.90
11089;DHT22;5598;48.648;8.908;2024-03-23T03:26:58;9.30;99.00
11089;DHT22;5598;48.648;8.908;2024-03-23T03:29:24;9.30;99.20
11089;DHT22;5598;48.648;8.908;2024-03-23T03:31:52;9.30;99.20
11089;DHT22;5598;48.648;8.908;2024-03-23T03:34:18;9.30;99.30
11089;DHT22;5598;48.648;8.908;2024-03-23T03:36:45;9.30;99.30
11089;DHT22;5598;48.648;8.908;2024-03-23T03:39:10;9.20;99.50
11089;DHT22;5598;48.648;8.908;2024-03-23T03:41:38;9.30;99.60
11089;DHT22;5598;48.648;8.908;2024-03-23T03:44:04;9.30;99.70
11089;DHT22;5598;48.648;8.908;2024-03-23T03:46:30;9.30;99.90
11089;DHT22;5598;48.648;8.908;2024-03-23T03:48:58;9.30;99.90
11089;DHT22;5598;48.648;8.908;2024-03-23T03:51:24;9.20;99.90
11089;DHT22;5598;48.648;8.908;2024-03-23T03:53:50;9.30;99.90
11089;DHT22;5598;48.648;8.908;2024-03-23T03:56:17;9.30;99.90
11089;DHT22;5598;48.648;8.908;2024-03-23T03:58:43;9.30;99.90
11089;DHT22;5598;48.648;8.908;2024-03-23T04:01:10;9.20;99.90
11089;DHT22;5598;48.648;8.908;2024-03-23T04:03:36;9.20;99.90
11089;DHT22;5598;48.648;8.908;2024-03-23T04:06:06;9.20;99.90
11089;DHT22;5598;48.648;8.908;2024-03-23T04:08:32;9.10;99.90
11089;DHT22;5598;48.648;8.908;2024-03-23T04:10:59;9.10;99.90
11089;DHT22;5598;48.648;8.908;2024-03-23T04:13:24;9.10;99.90
11089;DHT22;5598;48.648;8.908;2024-03-23T04:15:54;9.10;99.90
11089;DHT22;5598;48.648;8.908;2024-03-23T04:18:19;9.10;99.90
11089;DHT22;5598;48.648;8.908;2024-03-23T04:20:47;9.10;99.90
11089;DHT22;5598;48.648;8.908;2024-03-23T04:23:14;9.10;99.90
11089;DHT22;5598;48.648;8.908;2024-03-23T04:25:41;9.10;99.90
11089;DHT22;5598;48.648;8.908;2024-03-23T04:28:06;9.00;99.90
11089;DHT22;5598;48.648;8.908;2024-03-23T04:30:33;9.00;99.90
11089;DHT22;5598;48.648;8.908;2024-03-23T04:32:59;9.00;99.90
11089;DHT22;5598;48.648;8.908;2024-03-23T04:35:26;9.00;99.90
11089;DHT22;5598;48.648;8.908;2024-03-23T04:37:53;9.00;99.90
11089;DHT22;5598;48.648;8.908;2024-03-23T04:40:22;9.00;99.90
11089;DHT22;5598;48.648;8.908;2024-03-23T04:42:49;9.00;99.90
11089;DHT22;5598;48.648;8.908;2024-03-23T04:45:16;9.10;99.90
11089;DHT22;5598;48.648;8.908;2024-03-23T04:47:43;9.20;99.90
11089;DHT22;5598;48.648;8.908;2024-03-23T04:50:10;9.30;99.90
11089;DHT22;5598;48.648;8.908;2024-03-23T04:52:37;9.30;99.90
11089;DHT22;5598;48.648;8.908;2024-03-23T04:55:04;9.30;99.90
11089;DHT22;5598;48.648;8.908;2024-03-23T04:57:31;9.40;99.90
11089;DHT22;5598;48.648;8.908;2024-03-23T04:59:58;9.40;99.90
11089;DHT22;5598;48.648;8.908;2024-03-23T05:02:24;9.40;99.90
11089;DHT22;5598;48.648;8.908;2024-03-23T05:04:52;9.40;99.90
11089;DHT22;5598;48.648;8.908;2024-03-23T05:07:18;9.40;99.90
11089;DHT22;5598;48.648;8.908;2024-03-23T05:09:45;9.50;99.90
11089;DHT22;5598;48.648;8.908;2024-03-23T05:12:11;9.40;99.90
11089;DHT22;5598;48.648;8.908;2024-03-23T05:14:39;9.50;99.90
11089;DHT22;5598;48.648;8.908;2024-03-23T05:17:05;9.40;99.90
11089;DHT22;5598;48.648;8.908;2024-03-23T05:19:31;9.40;99.90
11089;DHT22;5598;48.648;8.908;2024-03-23T05:21:57;9.30;99.90
11089;DHT22;5598;48.648;8.908;2024-03-23T05:24:25;9.20;99.90
11089;DHT22;5598;48.648;8.908;2024-03-23T05:26:50;9.20;99.90
11089;DHT22;5598;48.648;8.908;2024-03-23T05:29:17;9.10;99.90
11089;DHT22;5598;48.648;8.908;2024-03-23T05:31:51;9.10;99.90
11089;DHT22;5598;48.648;8.908;2024-03-23T05:34:18;9.10;99.90
11089;DHT22;5598;48.648;8.908;2024-03-23T05:36:44;9.00;99.90
11089;DHT22;5598;48.648;8.908;2024-03-23T05:39:11;9.00;99.90
11089;DHT22;5598;48.648;8.908;2024-03-23T05:41:37;9.00;99.90
11089;DHT22;5598;48.648;8.908;2024-03-23T05:44:04;8.90;99.90
11089;DHT22;5598;48.648;8.908;2024-03-23T05:46:29;8.90;99.90
11089;DHT22;5598;48.648;8.908;2024-03-23T05:49:01;8.90;99.90
11089;DHT22;5598;48.648;8.908;2024-03-23T05:51:28;8.90;99.90
11089;DHT22;5598;48.648;8.908;2024-03-23T05:53:54;8.90;99.90
11089;DHT22;5598;48.648;8.908;2024-03-23T05:56:20;8.90;99.90
11089;DHT22;5598;48.648;8.908;2024-03-23T05:58:47;8.80;99.90
11089;DHT22;5598;48.648;8.908;2024-03-23T06:01:14;8.80;99.90
11089;DHT22;5598;48.648;8.908;2024-03-23T06:03:40;8.70;99.90
11089;DHT22;5598;48.648;8.908;2024-03-23T06:06:08;8.60;99.90
11089;DHT22;5598;48.648;8.908;2024-03-23T06:08:37;8.60;99.90
11089;DHT22;5598;48.648;8.908;2024-03-23T06:11:03;8.50;99.90
11089;DHT22;5598;48.648;8.908;2024-03-23T06:13:31;8.50;99.90
11089;DHT22;5598;48.648;8.908;2024-03-23T06:15:57;8.40;99.90
11089;DHT22;5598;48.648;8.908;2024-03-23T06:18:24;8.40;99.90
11089;DHT22;5598;48.648;8.908;2024-03-23T06:20:50;8.40;99.90
11089;DHT22;5598;48.648;8.908;2024-03-23T06:23:18;8.40;99.90
11089;DHT22;5598;48.648;8.908;2024-03-23T06:25:45;8.30;99.90
11089;DHT22;5598;48.648;8.908;2024-03-23T06:28:12;8.30;99.90
11089;DHT22;5598;48.648;8.908;2024-03-23T06:30:38;8.30;99.90
11089;DHT22;5598;48.648;8.908;2024-03-23T06:33:05;8.20;99.90
11089;DHT22;5598;48.648;8.908;2024-03-23T06:35:31;8.20;99.90
11089;DHT22;5598;48.648;8.908;2024-03-23T06:37:58;8.20;99.90
11089;DHT22;5598;48.648;8.908;2024-03-23T06:40:25;8.20;99.90
11089;DHT22;5598;48.648;8.908;2024-03-23T06:42:52;8.20;99.90
11089;DHT22;5598;48.648;8.908;2024-03-23T06:45:18;8.20;99.90
11089;DHT22;5598;48.648;8.908;2024-03-23T06:47:48;8.20;99.90
11089;DHT22;5598;48.648;8.908;2024-03-23T06:50:14;8.20;99.90
11089;DHT22;5598;48.648;8.908;2024-03-23T06:52:41;8.10;99.90
11089;DHT22;5598;48.648;8.908;2024-03-23T06:55:07;8.10;99.90
11089;DHT22;5598;48.648;8.908;2024-03-23T06:57:36;8.10;99.90
11089;DHT22;5598;48.648;8.908;2024-03-23T07:00:03;8.10;99.90
11089;DHT22;5598;48.648;8.908;2024-03-23T07:02:30;8.10;99.90
11089;DHT22;5598;48.648;8.908;2024-03-23T07:04:56;8.10;99.90
11089;DHT22;5598;48.648;8.908;2024-03-23T07:07:22;8.10;99.90
11089;DHT22;5598;48.648;8.908;2024-03-23T07:09:48;8.20;99.90
11089;DHT22;5598;48.648;8.908;2024-03-23T07:12:15;8.30;99.90
11089;DHT22;5598;48.648;8.908;2024-03-23T07:14:42;8.20;99.90
11089;DHT22;5598;48.648;8.908;2024-03-23T07:17:09;8.30;99.90
11089;DHT22;5598;48.648;8.908;2024-03-23T07:19:36;8.30;99.90
11089;DHT22;5598;48.648;8.908;2024-03-23T07:22:03;8.30;99.90
11089;DHT22;5598;48.648;8.908;2024-03-23T07:24:30;8.30;99.90
11089;DHT22;5598;48.648;8.908;2024-03-23T07:26:58;8.30;99.90
11089;DHT22;5598;48.648;8.908;2024-03-23T07:29:24;8.40;99.90
11089;DHT22;5598;48.648;8.908;2024-03-23T07:31:52;8.40;99.90
11089;DHT22;5598;48.648;8.908;2024-03-23T07:34:18;8.30;99.90
11089;DHT22;5598;48.648;8.908;2024-03-23T07:36:45;8.20;99.90
11089;DHT22;5598;48.648;8.908;2024-03-23T07:39:11;8.20;99.90
11089;DHT22;5598;48.648;8.908;2024-03-23T07:41:38;8.10;99.90
11089;DHT22;5598;48.648;8.908;2024-03-23T07:44:04;8.20;99.90
11089;DHT22;5598;48.648;8.908;2024-03-23T07:46:30;8.20;99.90
11089;DHT22;5598;48.648;8.908;2024-03-23T07:48:58;8.10;99.90
11089;DHT22;5598;48.648;8.908;2024-03-23T07:51:25;8.00;99.90
11089;DHT22;5598;48.648;8.908;2024-03-23T07:53:50;8.10;99.90
11089;DHT22;5598;48.648;8.908;2024-03-23T07:56:18;8.00;99.90
11089;DHT22;5598;48.648;8.908;2024-03-23T07:58:44;8.00;99.90
11089;DHT22;5598;48.648;8.908;2024-03-23T08:01:14;8.10;99.90
11089;DHT22;5598;48.648;8.908;2024-03-23T08:03:41;8.10;99.90
11089;DHT22;5598;48.648;8.908;2024-03-23T08:06:11;8.20;99.90
11089;DHT22;5598;48.648;8.908;2024-03-23T08:08:38;8.20;99.90
11089;DHT22;5598;48.648;8.908;2024-03-23T08:11:05;8.30;99.90
11089;DHT22;5598;48.648;8.908;2024-03-23T08:13:31;8.30;99.90
11089;DHT22;5598;48.648;8.908;2024-03-23T08:15:58;8.30;99.90
11089;DHT22;5598;48.648;8.908;2024-03-23T08:18:24;8.30;99.90
11089;DHT22;5598;48.648;8.908;2024-03-23T08:20:57;8.30;99.90
11089;DHT22;5598;48.648;8.908;2024-03-23T08:23:25;8.30;99.90
11089;DHT22;5598;48.648;8.908;2024-03-23T08:25:52;8.30;99.90
11089;DHT22;5598;48.648;8.908;2024-03-23T08:28:18;8.30;99.90
11089;DHT22;5598;48.648;8.908;2024-03-23T08:30:44;8.20;99.90
11089;DHT22;5598;48.648;8.908;2024-03-23T08:33:10;8.20;99.90
11089;DHT22;5598;48.648;8.908;2024-03-23T08:35:39;8.10;99.90
11089;DHT22;5598;48.648;8.908;2024-03-23T08:38:04;8.10;99.90
11089;DHT22;5598;48.648;8.908;2024-03-23T08:40:33;8.10;99.90
11089;DHT22;5598;48.648;8.908;2024-03-23T08:42:59;8.10;99.90
11089;DHT22;5598;48.648;8.908;2024-03-23T08:45:25;8.20;99.90
11089;DHT22;5598;48.648;8.908;2024-03-23T08:47:51;8.30;99.90
11089;DHT22;5598;48.648;8.908;2024-03-23T08:50:18;8.30;99.90
11089;DHT22;5598;48.648;8.908;2024-03-23T08:52:44;8.20;99.90
11089;DHT22;5598;48.648;8.908;2024-03-23T08:55:11;8.40;99.90
11089;DHT22;5598;48.648;8.908;2024-03-23T08:57:38;8.60;99.90
11089;DHT22;5598;48.648;8.908;2024-03-23T09:00:06;8.70;99.90
11089;DHT22;5598;48.648;8.908;2024-03-23T09:02:34;8.70;99.90
11089;DHT22;5598;48.648;8.908;2024-03-23T09:05:01;8.60;99.90
11089;DHT22;5598;48.648;8.908;2024-03-23T09:07:30;8.60;99.90
11089;DHT22;5598;48.648;8.908;2024-03-23T09:09:56;8.60;99.90
11089;DHT22;5598;48.648;8.908;2024-03-23T09:12:23;8.60;99.90
11089;DHT22;5598;48.648;8.908;2024-03-23T09:14:51;8.60;99.90
11089;DHT22;5598;48.648;8.908;2024-03-23T09:17:19;8.60;99.90
11089;DHT22;5598;48.648;8.908;2024-03-23T09:19:45;8.70;99.90
11089;DHT22;5598;48.648;8.908;2024-03-23T09:22:12;8.90;99.90
11089;DHT22;5598;48.648;8.908;2024-03-23T09:24:38;9.00;99.90
11089;DHT22;5598;48.648;8.908;2024-03-23T09:27:05;9.30;99.90
11089;DHT22;5598;48.648;8.908;2024-03-23T09:29:31;9.30;99.90
11089;DHT22;5598;48.648;8.908;2024-03-23T09:31:59;9.20;99.90
11089;DHT22;5598;48.648;8.908;2024-03-23T09:34:25;9.20;99.90
11089;DHT22;5598;48.648;8.908;2024-03-23T09:36:52;9.00;99.90
11089;DHT22;5598;48.648;8.908;2024-03-23T09:39:18;8.80;99.90
11089;DHT22;5598;48.648;8.908;2024-03-23T09:41:45;8.70;99.90
11089;DHT22;5598;48.648;8.908;2024-03-23T09:44:11;8.60;99.90
11089;DHT22;5598;48.648;8.908;2024-03-23T09:46:38;8.50;99.90
11089;DHT22;5598;48.648;8.908;2024-03-23T09:49:07;8.50;99.90
11089;DHT22;5598;48.648;8.908;2024-03-23T09:51:36;8.50;99.90
11089;DHT22;5598;48.648;8.908;2024-03-23T09:54:02;8.80;99.90
11089;DHT22;5598;48.648;8.908;2024-03-23T09:56:29;9.30;99.90
11089;DHT22;5598;48.648;8.908;2024-03-23T09:59:00;9.70;99.90
11089;DHT22;5598;48.648;8.908;2024-03-23T10:01:29;9.90;99.50
11089;DHT22;5598;48.648;8.908;2024-03-23T10:03:55;10.10;98.70
11089;DHT22;5598;48.648;8.908;2024-03-23T10:06:23;10.60;99.40
11089;DHT22;5598;48.648;8.908;2024-03-23T10:08:51;11.00;96.70
11089;DHT22;5598;48.648;8.908;2024-03-23T10:11:19;11.10;97.90
11089;DHT22;5598;48.648;8.908;2024-03-23T10:13:46;11.30;96.60
11089;DHT22;5598;48.648;8.908;2024-03-23T10:16:20;11.00;94.80
11089;DHT22;5598;48.648;8.908;2024-03-23T10:18:47;10.80;95.60
11089;DHT22;5598;48.648;8.908;2024-03-23T10:21:15;10.70;95.50
11089;DHT22;5598;48.648;8.908;2024-03-23T10:23:43;10.30;94.40
11089;DHT22;5598;48.648;8.908;2024-03-23T10:26:15;10.10;94.10
11089;DHT22;5598;48.648;8.908;2024-03-23T10:28:54;9.80;95.40
11089;DHT22;5598;48.648;8.908;2024-03-23T10:31:20;9.70;95.20
11089;DHT22;5598;48.648;8.908;2024-03-23T10:33:48;9.60;96.60
11089;DHT22;5598;48.648;8.908;2024-03-23T10:36:14;9.50;95.80
11089;DHT22;5598;48.648;8.908;2024-03-23T10:38:43;9.50;99.00
11089;DHT22;5598;48.648;8.908;2024-03-23T10:41:09;8.90;99.90
11089;DHT22;5598;48.648;8.908;2024-03-23T10:43:36;7.90;99.90
11089;DHT22;5598;48.648;8.908;2024-03-23T10:46:03;7.20;99.90
11089;DHT22;5598;48.648;8.908;2024-03-23T10:48:30;6.80;99.90
11089;DHT22;5598;48.648;8.908;2024-03-23T10:50:56;6.60;99.90
11089;DHT22;5598;48.648;8.908;2024-03-23T10:53:25;6.60;99.90
11089;DHT22;5598;48.648;8.908;2024-03-23T10:55:54;6.50;99.90
11089;DHT22;5598;48.648;8.908;2024-03-23T10:58:24;6.50;99.90
11089;DHT22;5598;48.648;8.908;2024-03-23T11:00:52;6.50;99.90
11089;DHT22;5598;48.648;8.908;2024-03-23T11:03:30;6.40;99.90
11089;DHT22;5598;48.648;8.908;2024-03-23T11:05:56;6.60;99.90
11089;DHT22;5598;48.648;8.908;2024-03-23T11:08:30;6.80;99.90
11089;DHT22;5598;48.648;8.908;2024-03-23T11:11:12;7.00;99.90
11089;DHT22;5598;48.648;8.908;2024-03-23T11:13:38;7.20;99.90
11089;DHT22;5598;48.648;8.908;2024-03-23T11:16:13;7.30;99.90
11089;DHT22;5598;48.648;8.908;2024-03-23T11:18:40;7.60;99.90
11089;DHT22;5598;48.648;8.908;2024-03-23T11:21:07;8.00;99.90
11089;DHT22;5598;48.648;8.908;2024-03-23T11:23:34;8.50;99.90
11089;DHT22;5598;48.648;8.908;2024-03-23T11:25:59;8.70;99.90
11089;DHT22;5598;48.648;8.908;2024-03-23T11:28:28;8.80;99.90
11089;DHT22;5598;48.648;8.908;2024-03-23T11:30:53;8.80;99.90
11089;DHT22;5598;48.648;8.908;2024-03-23T11:33:20;8.90;99.90
11089;DHT22;5598;48.648;8.908;2024-03-23T11:35:46;9.00;99.90
11089;DHT22;5598;48.648;8.908;2024-03-23T11:38:14;9.10;99.90
11089;DHT22;5598;48.648;8.908;2024-03-23T11:40:41;9.00;99.90
11089;DHT22;5598;48.648;8.908;2024-03-23T11:43:09;8.80;99.90
11089;DHT22;5598;48.648;8.908;2024-03-23T11:45:39;8.80;99.90
11089;DHT22;5598;48.648;8.908;2024-03-23T11:48:08;8.70;99.90
11089;DHT22;5598;48.648;8.908;2024-03-23T11:50:37;8.60;99.90
11089;DHT22;5598;48.648;8.908;2024-03-23T11:53:07;8.50;99.10
11089;DHT22;5598;48.648;8.908;2024-03-23T11:55:42;8.80;99.90
11089;DHT22;5598;48.648;8.908;2024-03-23T11:58:10;9.30;99.90
11089;DHT22;5598;48.648;8.908;2024-03-23T12:00:37;9.70;99.90
11089;DHT22;5598;48.648;8.908;2024-03-23T12:03:05;10.10;99.30
11089;DHT22;5598;48.648;8.908;2024-03-23T12:05:31;9.90;98.20
11089;DHT22;5598;48.648;8.908;2024-03-23T12:08:17;9.60;95.60
11089;DHT22;5598;48.648;8.908;2024-03-23T12:10:44;9.50;98.90
11089;DHT22;5598;48.648;8.908;2024-03-23T12:13:14;9.30;98.50
11089;DHT22;5598;48.648;8.908;2024-03-23T12:15:41;9.30;98.60
11089;DHT22;5598;48.648;8.908;2024-03-23T12:18:09;9.30;97.90
11089;DHT22;5598;48.648;8.908;2024-03-23T12:20:36;9.10;95.80
11089;DHT22;5598;48.648;8.908;2024-03-23T12:23:11;8.90;95.70
11089;DHT22;5598;48.648;8.908;2024-03-23T12:25:37;8.80;96.70
11089;DHT22;5598;48.648;8.908;2024-03-23T12:28:05;8.80;97.30
11089;DHT22;5598;48.648;8.908;2024-03-23T12:30:32;8.70;97.00
11089;DHT22;5598;48.648;8.908;2024-03-23T12:33:01;8.70;97.10
11089;DHT22;5598;48.648;8.908;2024-03-23T12:35:27;8.70;98.10
11089;DHT22;5598;48.648;8.908;2024-03-23T12:37:53;8.60;96.70
11089;DHT22;5598;48.648;8.908;2024-03-23T12:40:19;8.60;97.30
11089;DHT22;5598;48.648;8.908;2024-03-23T12:42:46;8.50;98.10
11089;DHT22;5598;48.648;8.908;2024-03-23T12:45:12;8.50;98.20
11089;DHT22;5598;48.648;8.908;2024-03-23T12:47:39;8.50;98.20
11089;DHT22;5598;48.648;8.908;2024-03-23T12:50:06;8.50;97.60
11089;DHT22;5598;48.648;8.908;2024-03-23T12:52:35;8.50;98.30
11089;DHT22;5598;48.648;8.908;2024-03-23T12:55:01;8.50;97.70
11089;DHT22;5598;48.648;8.908;2024-03-23T12:57:31;8.40;98.00
11089;DHT22;5598;48.648;8.908;2024-03-23T12:59:57;8.40;97.50
11089;DHT22;5598;48.648;8.908;2024-03-23T13:02:24;8.40;98.30
11089;DHT22;5598;48.648;8.908;2024-03-23T13:04:51;8.30;94.40
11089;DHT22;5598;48.648;8.908;2024-03-23T13:07:20;8.10;94.40
11089;DHT22;5598;48.648;8.908;2024-03-23T13:09:47;7.90;94.00
11089;DHT22;5598;48.648;8.908;2024-03-23T13:12:14;7.60;96.90
11089;DHT22;5598;48.648;8.908;2024-03-23T13:14:39;7.30;99.10
11089;DHT22;5598;48.648;8.908;2024-03-23T13:17:06;7.10;98.70
11089;DHT22;5598;48.648;8.908;2024-03-23T13:19:34;7.10;99.70
11089;DHT22;5598;48.648;8.908;2024-03-23T13:22:00;7.10;97.60
11089;DHT22;5598;48.648;8.908;2024-03-23T13:24:28;7.00;98.90
11089;DHT22;5598;48.648;8.908;2024-03-23T13:26:55;7.10;99.90
11089;DHT22;5598;48.648;8.908;2024-03-23T13:29:23;7.30;99.90
11089;DHT22;5598;48.648;8.908;2024-03-23T13:31:50;7.50;99.30
11089;DHT22;5598;48.648;8.908;2024-03-23T13:34:17;7.70;99.90
11089;DHT22;5598;48.648;8.908;2024-03-23T13:36:43;7.90;99.60
11089;DHT22;5598;48.648;8.908;2024-03-23T13:39:10;8.20;99.50
11089;DHT22;5598;48.648;8.908;2024-03-23T13:41:39;8.40;97.70
11089;DHT22;5598;48.648;8.908;2024-03-23T13:44:06;8.50;98.20
11089;DHT22;5598;48.648;8.908;2024-03-23T13:46:33;8.60;97.40
11089;DHT22;5598;48.648;8.908;2024-03-23T13:49:00;8.80;97.00
11089;DHT22;5598;48.648;8.908;2024-03-23T13:51:26;8.80;96.40
11089;DHT22;5598;48.648;8.908;2024-03-23T13:53:53;9.00;97.20
11089;DHT22;5598;48.648;8.908;2024-03-23T13:56:20;9.20;96.10
11089;DHT22;5598;48.648;8.908;2024-03-23T13:58:48;9.10;97.10
11089;DHT22;5598;48.648;8.908;2024-03-23T14:01:14;9.00;99.90
11089;DHT22;5598;48.648;8.908;2024-03-23T14:03:42;8.90;99.90
11089;DHT22;5598;48.648;8.908;2024-03-23T14:06:08;8.60;99.90
11089;DHT22;5598;48.648;8.908;2024-03-23T14:08:35;8.50;99.90
11089;DHT22;5598;48.648;8.908;2024-03-23T14:11:04;8.60;99.90
11089;DHT22;5598;48.648;8.908;2024-03-23T14:13:32;8.80;99.90
11089;DHT22;5598;48.648;8.908;2024-03-23T14:15:59;8.90;98.40
11089;DHT22;5598;48.648;8.908;2024-03-23T14:18:26;9.00;98.30
11089;DHT22;5598;48.648;8.908;2024-03-23T14:20:52;9.20;96.80
11089;DHT22;5598;48.648;8.908;2024-03-23T14:23:19;9.10;95.50
11089;DHT22;5598;48.648;8.908;2024-03-23T14:25:45;9.10;96.40
11089;DHT22;5598;48.648;8.908;2024-03-23T14:28:12;9.30;97.80
11089;DHT22;5598;48.648;8.908;2024-03-23T14:30:41;9.50;97.80
11089;DHT22;5598;48.648;8.908;2024-03-23T14:33:09;9.60;97.90
11089;DHT22;5598;48.648;8.908;2024-03-23T14:35:35;9.60;97.70
11089;DHT22;5598;48.648;8.908;2024-03-23T14:38:02;9.60;97.50
11089;DHT22;5598;48.648;8.908;2024-03-23T14:40:28;9.40;95.90
11089;DHT22;5598;48.648;8.908;2024-03-23T14:42:55;9.20;95.90
11089;DHT22;5598;48.648;8.908;2024-03-23T14:45:21;9.10;95.80
11089;DHT22;5598;48.648;8.908;2024-03-23T14:47:49;9.00;96.60
11089;DHT22;5598;48.648;8.908;2024-03-23T14:50:17;8.90;98.30
11089;DHT22;5598;48.648;8.908;2024-03-23T14:52:44;8.70;99.90
11089;DHT22;5598;48.648;8.908;2024-03-23T14:55:10;8.40;99.90
11089;DHT22;5598;48.648;8.908;2024-03-23T14:57:37;8.10;99.90
11089;DHT22;5598;48.648;8.908;2024-03-23T15:00:06;8.00;99.90
11089;DHT22;5598;48.648;8.908;2024-03-23T15:02:36;7.90;99.90
11089;DHT22;5598;48.648;8.908;2024-03-23T15:05:01;8.00;99.90
11089;DHT22;5598;48.648;8.908;2024-03-23T15:07:31;8.10;99.90
11089;DHT22;5598;48.648;8.908;2024-03-23T15:09:57;8.20;99.90
11089;DHT22;5598;48.648;8.908;2024-03-23T15:12:23;8.20;99.90
11089;DHT22;5598;48.648;8.908;2024-03-23T15:14:49;8.30;99.90
11089;DHT22;5598;48.648;8.908;2024-03-23T15:17:16;8.30;99.90
11089;DHT22;5598;48.648;8.908;2024-03-23T15:19:42;8.20;99.90
11089;DHT22;5598;48.648;8.908;2024-03-23T15:22:09;8.30;99.90
11089;DHT22;5598;48.648;8.908;2024-03-23T15:24:36;8.30;99.90
11089;DHT22;5598;48.648;8.908;2024-03-23T15:27:03;8.30;99.90
11089;DHT22;5598;48.648;8.908;2024-03-23T15:29:29;8.20;99.80
11089;DHT22;5598;48.648;8.908;2024-03-23T15:31:56;8.10;99.90
11089;DHT22;5598;48.648;8.908;2024-03-23T15:34:23;7.90;98.40
11089;DHT22;5598;48.648;8.908;2024-03-23T15:36:49;7.80;98.40
11089;DHT22;5598;48.648;8.908;2024-03-23T15:39:16;7.60;98.20
11089;DHT22;5598;48.648;8.908;2024-03-23T15:41:45;7.50;99.30
11089;DHT22;5598;48.648;8.908;2024-03-23T15:44:11;7.50;99.80
11089;DHT22;5598;48.648;8.908;2024-03-23T15:46:38;7.40;98.90
11089;DHT22;5598;48.648;8.908;2024-03-23T15:49:04;7.20;99.00
11089;DHT22;5598;48.648;8.908;2024-03-23T15:51:31;7.20;98.90
11089;DHT22;5598;48.648;8.908;2024-03-23T15:54:00;7.20;99.90
11089;DHT22;5598;48.648;8.908;2024-03-23T15:56:28;7.10;99.90
11089;DHT22;5598;48.648;8.908;2024-03-23T15:58:56;7.10;99.90
11089;DHT22;5598;48.648;8.908;2024-03-23T16:01:28;7.00;99.90
11089;DHT22;5598;48.648;8.908;2024-03-23T16:03:54;6.80;99.90
11089;DHT22;5598;48.648;8.908;2024-03-23T16:06:20;6.60;99.90
11089;DHT22;5598;48.648;8.908;2024-03-23T16:08:46;6.60;99.90
11089;DHT22;5598;48.648;8.908;2024-03-23T16:11:13;6.40;99.90
11089;DHT22;5598;48.648;8.908;2024-03-23T16:13:39;6.40;99.90
11089;DHT22;5598;48.648;8.908;2024-03-23T16:16:10;6.30;99.90
11089;DHT22;5598;48.648;8.908;2024-03-23T16:18:37;6.30;99.90
11089;DHT22;5598;48.648;8.908;2024-03-23T16:21:05;6.30;99.90
11089;DHT22;5598;48.648;8.908;2024-03-23T16:23:32;6.30;99.90
11089;DHT22;5598;48.648;8.908;2024-03-23T16:26:00;6.30;99.90
11089;DHT22;5598;48.648;8.908;2024-03-23T16:28:27;6.30;99.90
11089;DHT22;5598;48.648;8.908;2024-03-23T16:30:55;6.40;99.90
11089;DHT22;5598;48.648;8.908;2024-03-23T16:33:23;6.40;99.90
11089;DHT22;5598;48.648;8.908;2024-03-23T16:36:00;6.40;99.90
11089;DHT22;5598;48.648;8.908;2024-03-23T16:38:26;6.50;99.90
11089;DHT22;5598;48.648;8.908;2024-03-23T16:40:57;6.50;99.90
11089;DHT22;5598;48.648;8.908;2024-03-23T16:43:24;6.50;99.90
11089;DHT22;5598;48.648;8.908;2024-03-23T16:45:58;6.50;99.90
11089;DHT22;5598;48.648;8.908;2024-03-23T16:48:26;6.50;99.90
11089;DHT22;5598;48.648;8.908;2024-03-23T16:50:53;6.40;99.90